sensor_id;sensor_type;location;lat;lon;timestamp;P1;durP1;ratioP1;P2;durP2;ratioP2
83814;SDS011;73829;53.826;-3.034;2024-01-30T00:01:33;5.00;;;2.30;;
83814;SDS011;73829;53.826;-3.034;2024-01-30T00:04:04;5.10;;;2.50;;
83814;SDS011;73829;53.826;-3.034;2024-01-30T00:06:35;6.60;;;2.40;;
83814;SDS011;73829;53.826;-3.034;2024-01-30T00:11:36;5.60;;;2.30;;
83814;SDS011;73829;53.826;-3.034;2024-01-30T00:14:08;4.10;;;1.90;;
83814;SDS011;73829;53.826;-3.034;2024-01-30T00:16:39;4.20;;;2.00;;
83814;SDS011;73829;53.826;-3.034;2024-01-30T00:19:10;5.20;;;2.50;;
83814;SDS011;73829;53.826;-3.034;2024-01-30T00:21:41;5.90;;;2.30;;
83814;SDS011;73829;53.826;-3.034;2024-01-30T00:24:12;5.40;;;2.10;;
83814;SDS011;73829;53.826;-3.034;2024-01-30T00:26:43;5.00;;;2.10;;
83814;SDS011;73829;53.826;-3.034;2024-01-30T00:29:14;4.00;;;2.20;;
83814;SDS011;73829;53.826;-3.034;2024-01-30T00:31:47;4.40;;;1.90;;
83814;SDS011;73829;53.826;-3.034;2024-01-30T00:34:18;4.20;;;2.10;;
83814;SDS011;73829;53.826;-3.034;2024-01-30T00:36:49;4.70;;;2.10;;
83814;SDS011;73829;53.826;-3.034;2024-01-30T00:39:20;4.20;;;2.20;;
83814;SDS011;73829;53.826;-3.034;2024-01-30T00:41:51;4.70;;;2.00;;
83814;SDS011;73829;53.826;-3.034;2024-01-30T00:44:22;5.50;;;2.30;;
83814;SDS011;73829;53.826;-3.034;2024-01-30T00:46:53;5.40;;;2.20;;
83814;SDS011;73829;53.826;-3.034;2024-01-30T00:49:24;6.20;;;2.50;;
83814;SDS011;73829;53.826;-3.034;2024-01-30T00:51:55;5.80;;;1.90;;
83814;SDS011;73829;53.826;-3.034;2024-01-30T00:54:26;4.20;;;1.80;;
83814;SDS011;73829;53.826;-3.034;2024-01-30T00:56:57;4.70;;;1.90;;
83814;SDS011;73829;53.826;-3.034;2024-01-30T00:59:28;4.30;;;1.80;;
83814;SDS011;73829;53.826;-3.034;2024-01-30T01:01:59;3.90;;;1.80;;
83814;SDS011;73829;53.826;-3.034;2024-01-30T01:04:30;4.50;;;2.00;;
83814;SDS011;73829;53.826;-3.034;2024-01-30T01:07:01;5.00;;;2.10;;
83814;SDS011;73829;53.826;-3.034;2024-01-30T01:09:33;4.40;;;1.80;;
83814;SDS011;73829;53.826;-3.034;2024-01-30T01:12:04;3.70;;;1.70;;
83814;SDS011;73829;53.826;-3.034;2024-01-30T01:14:36;3.70;;;1.60;;
83814;SDS011;73829;53.826;-3.034;2024-01-30T01:17:07;4.00;;;1.70;;
83814;SDS011;73829;53.826;-3.034;2024-01-30T01:19:38;4.80;;;1.90;;
83814;SDS011;73829;53.826;-3.034;2024-01-30T01:22:09;4.30;;;1.70;;
83814;SDS011;73829;53.826;-3.034;2024-01-30T01:24:40;4.40;;;1.60;;
83814;SDS011;73829;53.826;-3.034;2024-01-30T01:27:11;3.50;;;1.60;;
83814;SDS011;73829;53.826;-3.034;2024-01-30T01:29:42;4.60;;;1.70;;
83814;SDS011;73829;53.826;-3.034;2024-01-30T01:34:42;3.70;;;1.40;;
83814;SDS011;73829;53.826;-3.034;2024-01-30T01:37:14;3.80;;;1.80;;
83814;SDS011;73829;53.826;-3.034;2024-01-30T01:42:14;3.20;;;1.50;;
83814;SDS011;73829;53.826;-3.034;2024-01-30T01:44:45;4.00;;;1.40;;
83814;SDS011;73829;53.826;-3.034;2024-01-30T01:47:16;3.60;;;1.70;;
83814;SDS011;73829;53.826;-3.034;2024-01-30T01:49:47;4.00;;;1.60;;
83814;SDS011;73829;53.826;-3.034;2024-01-30T01:52:18;3.90;;;1.90;;
83814;SDS011;73829;53.826;-3.034;2024-01-30T01:54:49;3.00;;;1.20;;
83814;SDS011;73829;53.826;-3.034;2024-01-30T01:57:21;2.90;;;1.30;;
83814;SDS011;73829;53.826;-3.034;2024-01-30T01:59:52;3.80;;;1.40;;
83814;SDS011;73829;53.826;-3.034;2024-01-30T02:02:23;4.10;;;1.50;;
83814;SDS011;73829;53.826;-3.034;2024-01-30T02:04:56;4.00;;;1.50;;
83814;SDS011;73829;53.826;-3.034;2024-01-30T02:07:28;3.10;;;1.20;;
83814;SDS011;73829;53.826;-3.034;2024-01-30T02:09:59;3.20;;;1.20;;
83814;SDS011;73829;53.826;-3.034;2024-01-30T02:12:31;4.40;;;1.50;;
83814;SDS011;73829;53.826;-3.034;2024-01-30T02:15:03;3.60;;;1.40;;
83814;SDS011;73829;53.826;-3.034;2024-01-30T02:17:35;2.60;;;1.20;;
83814;SDS011;73829;53.826;-3.034;2024-01-30T02:20:07;3.00;;;1.10;;
83814;SDS011;73829;53.826;-3.034;2024-01-30T02:22:43;4.90;;;1.20;;
83814;SDS011;73829;53.826;-3.034;2024-01-30T02:25:14;3.20;;;1.20;;
83814;SDS011;73829;53.826;-3.034;2024-01-30T02:27:46;3.20;;;1.30;;
83814;SDS011;73829;53.826;-3.034;2024-01-30T02:30:17;3.30;;;1.30;;
83814;SDS011;73829;53.826;-3.034;2024-01-30T02:32:48;3.30;;;1.20;;
83814;SDS011;73829;53.826;-3.034;2024-01-30T02:35:19;3.50;;;1.40;;
83814;SDS011;73829;53.826;-3.034;2024-01-30T02:37:50;3.50;;;1.20;;
83814;SDS011;73829;53.826;-3.034;2024-01-30T02:42:50;3.00;;;1.10;;
83814;SDS011;73829;53.826;-3.034;2024-01-30T02:45:21;3.40;;;1.10;;
83814;SDS011;73829;53.826;-3.034;2024-01-30T02:50:22;2.50;;;1.00;;
83814;SDS011;73829;53.826;-3.034;2024-01-30T02:52:53;3.20;;;1.20;;
83814;SDS011;73829;53.826;-3.034;2024-01-30T02:55:24;3.20;;;1.20;;
83814;SDS011;73829;53.826;-3.034;2024-01-30T02:57:55;2.50;;;1.00;;
83814;SDS011;73829;53.826;-3.034;2024-01-30T03:00:26;3.60;;;1.20;;
83814;SDS011;73829;53.826;-3.034;2024-01-30T03:02:58;2.90;;;1.00;;
83814;SDS011;73829;53.826;-3.034;2024-01-30T03:05:30;3.00;;;1.40;;
83814;SDS011;73829;53.826;-3.034;2024-01-30T03:08:01;2.50;;;0.90;;
83814;SDS011;73829;53.826;-3.034;2024-01-30T03:10:32;3.10;;;1.00;;
83814;SDS011;73829;53.826;-3.034;2024-01-30T03:13:04;2.70;;;0.80;;
83814;SDS011;73829;53.826;-3.034;2024-01-30T03:15:35;2.60;;;1.00;;
83814;SDS011;73829;53.826;-3.034;2024-01-30T03:18:06;2.70;;;1.00;;
83814;SDS011;73829;53.826;-3.034;2024-01-30T03:20:37;3.80;;;1.10;;
83814;SDS011;73829;53.826;-3.034;2024-01-30T03:23:08;2.30;;;0.80;;
83814;SDS011;73829;53.826;-3.034;2024-01-30T03:25:40;3.20;;;1.00;;
83814;SDS011;73829;53.826;-3.034;2024-01-30T03:28:11;2.80;;;1.00;;
83814;SDS011;73829;53.826;-3.034;2024-01-30T03:30:42;2.70;;;0.80;;
83814;SDS011;73829;53.826;-3.034;2024-01-30T03:33:12;2.90;;;1.00;;
83814;SDS011;73829;53.826;-3.034;2024-01-30T03:35:43;2.70;;;0.90;;
83814;SDS011;73829;53.826;-3.034;2024-01-30T03:38:15;2.40;;;1.10;;
83814;SDS011;73829;53.826;-3.034;2024-01-30T03:40:46;2.60;;;0.70;;
83814;SDS011;73829;53.826;-3.034;2024-01-30T03:45:46;2.90;;;0.80;;
83814;SDS011;73829;53.826;-3.034;2024-01-30T03:48:17;1.80;;;0.60;;
83814;SDS011;73829;53.826;-3.034;2024-01-30T03:50:49;1.90;;;0.60;;
83814;SDS011;73829;53.826;-3.034;2024-01-30T03:53:21;2.90;;;0.80;;
83814;SDS011;73829;53.826;-3.034;2024-01-30T03:55:52;3.00;;;0.80;;
83814;SDS011;73829;53.826;-3.034;2024-01-30T03:58:23;2.60;;;0.90;;
83814;SDS011;73829;53.826;-3.034;2024-01-30T04:00:54;2.50;;;0.70;;
83814;SDS011;73829;53.826;-3.034;2024-01-30T04:05:55;2.50;;;0.90;;
83814;SDS011;73829;53.826;-3.034;2024-01-30T04:08:26;2.30;;;0.70;;
83814;SDS011;73829;53.826;-3.034;2024-01-30T04:10:57;2.40;;;0.70;;
83814;SDS011;73829;53.826;-3.034;2024-01-30T04:13:28;2.30;;;0.80;;
83814;SDS011;73829;53.826;-3.034;2024-01-30T04:16:00;2.70;;;0.70;;
83814;SDS011;73829;53.826;-3.034;2024-01-30T04:22:11;1.80;;;0.60;;
83814;SDS011;73829;53.826;-3.034;2024-01-30T04:24:43;1.80;;;0.50;;
83814;SDS011;73829;53.826;-3.034;2024-01-30T04:27:14;2.50;;;0.90;;
83814;SDS011;73829;53.826;-3.034;2024-01-30T04:29:45;2.50;;;0.70;;
83814;SDS011;73829;53.826;-3.034;2024-01-30T04:32:16;1.60;;;0.50;;
83814;SDS011;73829;53.826;-3.034;2024-01-30T04:34:47;2.20;;;0.60;;
83814;SDS011;73829;53.826;-3.034;2024-01-30T04:37:18;1.90;;;0.50;;
83814;SDS011;73829;53.826;-3.034;2024-01-30T04:39:49;2.20;;;0.80;;
83814;SDS011;73829;53.826;-3.034;2024-01-30T04:42:20;2.40;;;0.60;;
83814;SDS011;73829;53.826;-3.034;2024-01-30T04:44:51;1.80;;;0.70;;
83814;SDS011;73829;53.826;-3.034;2024-01-30T04:47:22;1.90;;;0.70;;
83814;SDS011;73829;53.826;-3.034;2024-01-30T04:49:54;1.40;;;0.60;;
83814;SDS011;73829;53.826;-3.034;2024-01-30T04:52:25;1.30;;;0.60;;
83814;SDS011;73829;53.826;-3.034;2024-01-30T04:54:56;1.60;;;0.60;;
83814;SDS011;73829;53.826;-3.034;2024-01-30T04:57:27;1.90;;;0.60;;
83814;SDS011;73829;53.826;-3.034;2024-01-30T04:59:59;2.30;;;0.60;;
83814;SDS011;73829;53.826;-3.034;2024-01-30T05:02:31;2.10;;;0.80;;
83814;SDS011;73829;53.826;-3.034;2024-01-30T05:05:02;2.30;;;0.70;;
83814;SDS011;73829;53.826;-3.034;2024-01-30T05:07:33;1.70;;;0.70;;
83814;SDS011;73829;53.826;-3.034;2024-01-30T05:10:05;2.40;;;0.70;;
83814;SDS011;73829;53.826;-3.034;2024-01-30T05:12:38;1.10;;;0.50;;
83814;SDS011;73829;53.826;-3.034;2024-01-30T05:15:09;2.40;;;0.60;;
83814;SDS011;73829;53.826;-3.034;2024-01-30T05:17:41;1.80;;;0.60;;
83814;SDS011;73829;53.826;-3.034;2024-01-30T05:20:19;2.10;;;0.50;;
83814;SDS011;73829;53.826;-3.034;2024-01-30T05:25:20;1.90;;;0.50;;
83814;SDS011;73829;53.826;-3.034;2024-01-30T05:27:51;3.00;;;0.60;;
83814;SDS011;73829;53.826;-3.034;2024-01-30T05:30:23;1.80;;;0.80;;
83814;SDS011;73829;53.826;-3.034;2024-01-30T05:32:54;1.50;;;0.50;;
83814;SDS011;73829;53.826;-3.034;2024-01-30T05:35:27;2.30;;;0.70;;
83814;SDS011;73829;53.826;-3.034;2024-01-30T05:37:58;1.40;;;0.50;;
83814;SDS011;73829;53.826;-3.034;2024-01-30T05:40:29;2.50;;;0.70;;
83814;SDS011;73829;53.826;-3.034;2024-01-30T05:43:00;2.40;;;0.60;;
83814;SDS011;73829;53.826;-3.034;2024-01-30T05:45:31;1.90;;;0.50;;
83814;SDS011;73829;53.826;-3.034;2024-01-30T05:48:03;1.50;;;0.30;;
83814;SDS011;73829;53.826;-3.034;2024-01-30T05:50:34;1.30;;;0.40;;
83814;SDS011;73829;53.826;-3.034;2024-01-30T05:53:06;1.20;;;0.40;;
83814;SDS011;73829;53.826;-3.034;2024-01-30T05:55:38;1.10;;;0.40;;
83814;SDS011;73829;53.826;-3.034;2024-01-30T05:58:09;1.30;;;0.40;;
83814;SDS011;73829;53.826;-3.034;2024-01-30T06:00:40;2.50;;;0.60;;
83814;SDS011;73829;53.826;-3.034;2024-01-30T06:03:11;1.70;;;0.50;;
83814;SDS011;73829;53.826;-3.034;2024-01-30T06:05:43;1.60;;;0.30;;
83814;SDS011;73829;53.826;-3.034;2024-01-30T06:08:14;1.50;;;0.30;;
83814;SDS011;73829;53.826;-3.034;2024-01-30T06:10:45;1.20;;;0.40;;
83814;SDS011;73829;53.826;-3.034;2024-01-30T06:13:17;0.90;;;0.40;;
83814;SDS011;73829;53.826;-3.034;2024-01-30T06:15:48;0.90;;;0.30;;
83814;SDS011;73829;53.826;-3.034;2024-01-30T06:18:19;1.50;;;0.40;;
83814;SDS011;73829;53.826;-3.034;2024-01-30T06:20:50;1.60;;;0.50;;
83814;SDS011;73829;53.826;-3.034;2024-01-30T06:23:21;1.80;;;0.50;;
83814;SDS011;73829;53.826;-3.034;2024-01-30T06:25:52;1.10;;;0.40;;
83814;SDS011;73829;53.826;-3.034;2024-01-30T06:28:23;1.40;;;0.50;;
83814;SDS011;73829;53.826;-3.034;2024-01-30T06:30:54;1.10;;;0.30;;
83814;SDS011;73829;53.826;-3.034;2024-01-30T06:33:25;0.90;;;0.30;;
83814;SDS011;73829;53.826;-3.034;2024-01-30T06:35:57;2.00;;;0.50;;
83814;SDS011;73829;53.826;-3.034;2024-01-30T06:38:28;1.10;;;0.40;;
83814;SDS011;73829;53.826;-3.034;2024-01-30T06:40:59;0.40;;;0.20;;
83814;SDS011;73829;53.826;-3.034;2024-01-30T06:43:30;0.90;;;0.30;;
83814;SDS011;73829;53.826;-3.034;2024-01-30T06:46:01;1.10;;;0.30;;
83814;SDS011;73829;53.826;-3.034;2024-01-30T06:48:33;1.10;;;0.40;;
83814;SDS011;73829;53.826;-3.034;2024-01-30T06:51:04;2.20;;;0.60;;
83814;SDS011;73829;53.826;-3.034;2024-01-30T06:53:35;1.60;;;0.50;;
83814;SDS011;73829;53.826;-3.034;2024-01-30T06:56:07;1.30;;;0.30;;
83814;SDS011;73829;53.826;-3.034;2024-01-30T06:58:38;1.10;;;0.40;;
83814;SDS011;73829;53.826;-3.034;2024-01-30T07:01:09;1.00;;;0.30;;
83814;SDS011;73829;53.826;-3.034;2024-01-30T07:03:40;1.30;;;0.40;;
83814;SDS011;73829;53.826;-3.034;2024-01-30T07:06:12;1.30;;;0.40;;
83814;SDS011;73829;53.826;-3.034;2024-01-30T07:08:43;1.20;;;0.50;;
83814;SDS011;73829;53.826;-3.034;2024-01-30T07:11:19;1.60;;;0.40;;
83814;SDS011;73829;53.826;-3.034;2024-01-30T07:16:22;1.00;;;0.30;;
83814;SDS011;73829;53.826;-3.034;2024-01-30T07:18:53;1.70;;;0.40;;
83814;SDS011;73829;53.826;-3.034;2024-01-30T07:21:24;0.50;;;0.20;;
83814;SDS011;73829;53.826;-3.034;2024-01-30T07:23:56;1.20;;;0.30;;
83814;SDS011;73829;53.826;-3.034;2024-01-30T07:26:28;1.20;;;0.20;;
83814;SDS011;73829;53.826;-3.034;2024-01-30T07:28:59;1.10;;;0.30;;
83814;SDS011;73829;53.826;-3.034;2024-01-30T07:31:31;1.40;;;0.40;;
83814;SDS011;73829;53.826;-3.034;2024-01-30T07:34:02;2.40;;;0.30;;
83814;SDS011;73829;53.826;-3.034;2024-01-30T07:36:33;1.50;;;0.40;;
83814;SDS011;73829;53.826;-3.034;2024-01-30T07:39:04;4.80;;;0.60;;
83814;SDS011;73829;53.826;-3.034;2024-01-30T07:41:35;3.60;;;0.50;;
83814;SDS011;73829;53.826;-3.034;2024-01-30T07:44:06;2.30;;;0.50;;
83814;SDS011;73829;53.826;-3.034;2024-01-30T07:46:39;4.30;;;1.00;;
83814;SDS011;73829;53.826;-3.034;2024-01-30T07:49:11;5.10;;;0.80;;
83814;SDS011;73829;53.826;-3.034;2024-01-30T07:51:42;2.40;;;0.70;;
83814;SDS011;73829;53.826;-3.034;2024-01-30T07:54:14;1.60;;;0.50;;
83814;SDS011;73829;53.826;-3.034;2024-01-30T07:56:45;1.50;;;0.40;;
83814;SDS011;73829;53.826;-3.034;2024-01-30T07:59:17;3.00;;;0.50;;
83814;SDS011;73829;53.826;-3.034;2024-01-30T08:01:52;6.30;;;0.60;;
83814;SDS011;73829;53.826;-3.034;2024-01-30T08:04:23;2.80;;;0.50;;
83814;SDS011;73829;53.826;-3.034;2024-01-30T08:06:54;3.00;;;0.50;;
83814;SDS011;73829;53.826;-3.034;2024-01-30T08:09:26;4.20;;;0.60;;
83814;SDS011;73829;53.826;-3.034;2024-01-30T08:11:57;1.80;;;0.50;;
83814;SDS011;73829;53.826;-3.034;2024-01-30T08:14:29;5.20;;;0.70;;
83814;SDS011;73829;53.826;-3.034;2024-01-30T08:17:00;3.30;;;0.50;;
83814;SDS011;73829;53.826;-3.034;2024-01-30T08:19:32;5.70;;;0.70;;
83814;SDS011;73829;53.826;-3.034;2024-01-30T08:22:03;8.40;;;1.20;;
83814;SDS011;73829;53.826;-3.034;2024-01-30T08:24:34;4.30;;;0.90;;
83814;SDS011;73829;53.826;-3.034;2024-01-30T08:27:05;5.90;;;0.60;;
83814;SDS011;73829;53.826;-3.034;2024-01-30T08:29:37;9.70;;;0.60;;
83814;SDS011;73829;53.826;-3.034;2024-01-30T08:32:08;4.70;;;0.60;;
83814;SDS011;73829;53.826;-3.034;2024-01-30T08:34:40;3.50;;;0.50;;
83814;SDS011;73829;53.826;-3.034;2024-01-30T08:37:11;3.20;;;0.60;;
83814;SDS011;73829;53.826;-3.034;2024-01-30T08:39:44;4.20;;;0.70;;
83814;SDS011;73829;53.826;-3.034;2024-01-30T08:42:15;4.40;;;0.70;;
83814;SDS011;73829;53.826;-3.034;2024-01-30T08:44:51;5.40;;;0.80;;
83814;SDS011;73829;53.826;-3.034;2024-01-30T08:47:23;5.40;;;0.60;;
83814;SDS011;73829;53.826;-3.034;2024-01-30T08:49:54;7.10;;;1.10;;
83814;SDS011;73829;53.826;-3.034;2024-01-30T08:52:25;4.20;;;0.70;;
83814;SDS011;73829;53.826;-3.034;2024-01-30T08:54:56;5.00;;;0.70;;
83814;SDS011;73829;53.826;-3.034;2024-01-30T08:57:27;4.30;;;1.00;;
83814;SDS011;73829;53.826;-3.034;2024-01-30T08:59:59;2.60;;;0.70;;
83814;SDS011;73829;53.826;-3.034;2024-01-30T09:02:34;6.70;;;0.90;;
83814;SDS011;73829;53.826;-3.034;2024-01-30T09:05:05;3.30;;;0.60;;
83814;SDS011;73829;53.826;-3.034;2024-01-30T09:07:37;5.00;;;0.90;;
83814;SDS011;73829;53.826;-3.034;2024-01-30T09:10:08;3.50;;;0.70;;
83814;SDS011;73829;53.826;-3.034;2024-01-30T09:12:39;5.70;;;1.20;;
83814;SDS011;73829;53.826;-3.034;2024-01-30T09:15:11;4.50;;;0.80;;
83814;SDS011;73829;53.826;-3.034;2024-01-30T09:17:43;3.80;;;0.70;;
83814;SDS011;73829;53.826;-3.034;2024-01-30T09:20:16;4.80;;;0.90;;
83814;SDS011;73829;53.826;-3.034;2024-01-30T09:22:50;3.90;;;1.10;;
83814;SDS011;73829;53.826;-3.034;2024-01-30T09:25:21;5.30;;;0.70;;
83814;SDS011;73829;53.826;-3.034;2024-01-30T09:27:52;4.00;;;0.60;;
83814;SDS011;73829;53.826;-3.034;2024-01-30T09:30:23;5.30;;;0.70;;
83814;SDS011;73829;53.826;-3.034;2024-01-30T09:32:54;2.50;;;0.50;;
83814;SDS011;73829;53.826;-3.034;2024-01-30T09:35:25;2.70;;;0.60;;
83814;SDS011;73829;53.826;-3.034;2024-01-30T09:37:56;1.60;;;0.40;;
83814;SDS011;73829;53.826;-3.034;2024-01-30T09:40:28;4.20;;;0.60;;
83814;SDS011;73829;53.826;-3.034;2024-01-30T09:42:59;5.50;;;0.60;;
83814;SDS011;73829;53.826;-3.034;2024-01-30T09:45:30;5.50;;;0.80;;
83814;SDS011;73829;53.826;-3.034;2024-01-30T09:48:04;4.30;;;0.60;;
83814;SDS011;73829;53.826;-3.034;2024-01-30T09:50:36;2.70;;;0.50;;
83814;SDS011;73829;53.826;-3.034;2024-01-30T09:53:08;4.00;;;0.60;;
83814;SDS011;73829;53.826;-3.034;2024-01-30T09:55:40;2.40;;;0.40;;
83814;SDS011;73829;53.826;-3.034;2024-01-30T09:58:15;5.40;;;0.70;;
83814;SDS011;73829;53.826;-3.034;2024-01-30T10:00:46;3.40;;;0.70;;
83814;SDS011;73829;53.826;-3.034;2024-01-30T10:03:17;2.00;;;0.40;;
83814;SDS011;73829;53.826;-3.034;2024-01-30T10:05:50;3.00;;;0.50;;
83814;SDS011;73829;53.826;-3.034;2024-01-30T10:08:22;2.50;;;0.60;;
83814;SDS011;73829;53.826;-3.034;2024-01-30T10:10:53;3.70;;;0.70;;
83814;SDS011;73829;53.826;-3.034;2024-01-30T10:13:24;3.40;;;0.60;;
83814;SDS011;73829;53.826;-3.034;2024-01-30T10:15:57;2.60;;;0.60;;
83814;SDS011;73829;53.826;-3.034;2024-01-30T10:18:30;1.70;;;0.40;;
83814;SDS011;73829;53.826;-3.034;2024-01-30T10:21:01;2.30;;;0.50;;
83814;SDS011;73829;53.826;-3.034;2024-01-30T10:23:32;2.70;;;0.40;;
83814;SDS011;73829;53.826;-3.034;2024-01-30T10:26:06;2.40;;;0.80;;
83814;SDS011;73829;53.826;-3.034;2024-01-30T10:28:38;4.30;;;0.50;;
83814;SDS011;73829;53.826;-3.034;2024-01-30T10:31:09;3.40;;;0.60;;
83814;SDS011;73829;53.826;-3.034;2024-01-30T10:33:40;4.30;;;0.80;;
83814;SDS011;73829;53.826;-3.034;2024-01-30T10:36:12;5.00;;;0.60;;
83814;SDS011;73829;53.826;-3.034;2024-01-30T10:38:45;4.70;;;0.60;;
83814;SDS011;73829;53.826;-3.034;2024-01-30T10:41:19;2.50;;;0.80;;
83814;SDS011;73829;53.826;-3.034;2024-01-30T10:43:58;3.30;;;0.60;;
83814;SDS011;73829;53.826;-3.034;2024-01-30T10:46:37;3.70;;;0.70;;
83814;SDS011;73829;53.826;-3.034;2024-01-30T10:49:11;3.00;;;0.50;;
83814;SDS011;73829;53.826;-3.034;2024-01-30T10:51:44;3.40;;;0.60;;
83814;SDS011;73829;53.826;-3.034;2024-01-30T10:54:17;3.00;;;0.50;;
83814;SDS011;73829;53.826;-3.034;2024-01-30T10:56:49;2.80;;;0.50;;
83814;SDS011;73829;53.826;-3.034;2024-01-30T10:59:21;3.30;;;0.50;;
83814;SDS011;73829;53.826;-3.034;2024-01-30T11:01:55;2.90;;;0.50;;
83814;SDS011;73829;53.826;-3.034;2024-01-30T11:04:27;1.90;;;0.50;;
83814;SDS011;73829;53.826;-3.034;2024-01-30T11:07:04;1.60;;;0.50;;
83814;SDS011;73829;53.826;-3.034;2024-01-30T11:09:51;4.70;;;1.00;;
83814;SDS011;73829;53.826;-3.034;2024-01-30T11:12:25;3.10;;;0.70;;
83814;SDS011;73829;53.826;-3.034;2024-01-30T11:15:03;5.30;;;1.00;;
83814;SDS011;73829;53.826;-3.034;2024-01-30T11:17:49;3.60;;;1.40;;
83814;SDS011;73829;53.826;-3.034;2024-01-30T11:20:21;5.20;;;1.60;;
83814;SDS011;73829;53.826;-3.034;2024-01-30T11:22:56;5.20;;;1.90;;
83814;SDS011;73829;53.826;-3.034;2024-01-30T11:25:30;3.60;;;1.40;;
83814;SDS011;73829;53.826;-3.034;2024-01-30T11:28:02;3.60;;;1.30;;
83814;SDS011;73829;53.826;-3.034;2024-01-30T11:30:34;3.60;;;1.50;;
83814;SDS011;73829;53.826;-3.034;2024-01-30T11:33:06;3.40;;;1.30;;
83814;SDS011;73829;53.826;-3.034;2024-01-30T11:35:41;3.40;;;1.30;;
83814;SDS011;73829;53.826;-3.034;2024-01-30T11:38:14;5.10;;;1.50;;
83814;SDS011;73829;53.826;-3.034;2024-01-30T11:40:45;4.50;;;1.40;;
83814;SDS011;73829;53.826;-3.034;2024-01-30T11:43:17;4.60;;;1.40;;
83814;SDS011;73829;53.826;-3.034;2024-01-30T11:45:48;5.40;;;1.60;;
83814;SDS011;73829;53.826;-3.034;2024-01-30T11:48:20;4.20;;;1.60;;
83814;SDS011;73829;53.826;-3.034;2024-01-30T11:50:51;4.30;;;1.50;;
83814;SDS011;73829;53.826;-3.034;2024-01-30T11:53:23;3.70;;;1.40;;
83814;SDS011;73829;53.826;-3.034;2024-01-30T11:55:58;4.80;;;1.40;;
83814;SDS011;73829;53.826;-3.034;2024-01-30T11:58:29;4.40;;;1.70;;
83814;SDS011;73829;53.826;-3.034;2024-01-30T12:01:00;3.70;;;1.30;;
83814;SDS011;73829;53.826;-3.034;2024-01-30T12:03:32;7.00;;;1.70;;
83814;SDS011;73829;53.826;-3.034;2024-01-30T12:06:03;4.40;;;1.20;;
83814;SDS011;73829;53.826;-3.034;2024-01-30T12:08:36;4.10;;;1.20;;
83814;SDS011;73829;53.826;-3.034;2024-01-30T12:11:07;3.60;;;1.40;;
83814;SDS011;73829;53.826;-3.034;2024-01-30T12:13:38;4.00;;;1.30;;
83814;SDS011;73829;53.826;-3.034;2024-01-30T12:16:10;5.20;;;1.40;;
83814;SDS011;73829;53.826;-3.034;2024-01-30T12:18:42;3.10;;;1.10;;
83814;SDS011;73829;53.826;-3.034;2024-01-30T12:21:15;4.20;;;1.50;;
83814;SDS011;73829;53.826;-3.034;2024-01-30T12:23:47;4.10;;;1.10;;
83814;SDS011;73829;53.826;-3.034;2024-01-30T12:26:18;3.60;;;1.00;;
83814;SDS011;73829;53.826;-3.034;2024-01-30T12:28:49;4.60;;;1.50;;
83814;SDS011;73829;53.826;-3.034;2024-01-30T12:31:27;3.60;;;1.20;;
83814;SDS011;73829;53.826;-3.034;2024-01-30T12:33:59;5.90;;;1.30;;
83814;SDS011;73829;53.826;-3.034;2024-01-30T12:36:30;4.30;;;1.50;;
83814;SDS011;73829;53.826;-3.034;2024-01-30T12:39:01;3.80;;;1.40;;
83814;SDS011;73829;53.826;-3.034;2024-01-30T12:41:33;4.30;;;1.40;;
83814;SDS011;73829;53.826;-3.034;2024-01-30T12:44:05;5.90;;;1.70;;
83814;SDS011;73829;53.826;-3.034;2024-01-30T12:46:37;5.90;;;2.30;;
83814;SDS011;73829;53.826;-3.034;2024-01-30T12:49:08;7.00;;;1.80;;
83814;SDS011;73829;53.826;-3.034;2024-01-30T12:51:40;5.10;;;2.10;;
83814;SDS011;73829;53.826;-3.034;2024-01-30T12:54:12;5.60;;;2.10;;
83814;SDS011;73829;53.826;-3.034;2024-01-30T12:56:43;7.50;;;2.50;;
83814;SDS011;73829;53.826;-3.034;2024-01-30T12:59:14;7.30;;;2.50;;
83814;SDS011;73829;53.826;-3.034;2024-01-30T13:01:45;10.50;;;2.80;;
83814;SDS011;73829;53.826;-3.034;2024-01-30T13:04:16;7.90;;;2.30;;
83814;SDS011;73829;53.826;-3.034;2024-01-30T13:06:47;8.60;;;2.40;;
83814;SDS011;73829;53.826;-3.034;2024-01-30T13:09:18;8.10;;;2.70;;
83814;SDS011;73829;53.826;-3.034;2024-01-30T13:11:51;8.80;;;2.80;;
83814;SDS011;73829;53.826;-3.034;2024-01-30T13:14:22;6.90;;;2.60;;
83814;SDS011;73829;53.826;-3.034;2024-01-30T13:16:53;7.40;;;2.70;;
83814;SDS011;73829;53.826;-3.034;2024-01-30T13:19:24;8.10;;;2.60;;
83814;SDS011;73829;53.826;-3.034;2024-01-30T13:21:55;5.60;;;2.10;;
83814;SDS011;73829;53.826;-3.034;2024-01-30T13:24:26;5.80;;;2.50;;
83814;SDS011;73829;53.826;-3.034;2024-01-30T13:26:57;6.20;;;2.50;;
83814;SDS011;73829;53.826;-3.034;2024-01-30T13:29:28;7.70;;;2.90;;
83814;SDS011;73829;53.826;-3.034;2024-01-30T13:31:59;6.90;;;2.90;;
83814;SDS011;73829;53.826;-3.034;2024-01-30T13:34:30;5.70;;;2.30;;
83814;SDS011;73829;53.826;-3.034;2024-01-30T13:37:01;6.20;;;2.30;;
83814;SDS011;73829;53.826;-3.034;2024-01-30T13:39:33;6.40;;;1.70;;
83814;SDS011;73829;53.826;-3.034;2024-01-30T13:42:04;4.90;;;1.70;;
83814;SDS011;73829;53.826;-3.034;2024-01-30T13:44:35;7.10;;;2.40;;
83814;SDS011;73829;53.826;-3.034;2024-01-30T13:47:06;7.10;;;1.90;;
83814;SDS011;73829;53.826;-3.034;2024-01-30T13:49:37;4.40;;;1.70;;
83814;SDS011;73829;53.826;-3.034;2024-01-30T13:52:08;6.60;;;2.00;;
83814;SDS011;73829;53.826;-3.034;2024-01-30T13:54:40;6.30;;;1.80;;
83814;SDS011;73829;53.826;-3.034;2024-01-30T13:57:11;5.10;;;1.60;;
83814;SDS011;73829;53.826;-3.034;2024-01-30T13:59:42;5.10;;;1.60;;
83814;SDS011;73829;53.826;-3.034;2024-01-30T14:02:13;7.50;;;1.80;;
83814;SDS011;73829;53.826;-3.034;2024-01-30T14:04:44;7.50;;;1.90;;
83814;SDS011;73829;53.826;-3.034;2024-01-30T14:07:15;6.00;;;1.90;;
83814;SDS011;73829;53.826;-3.034;2024-01-30T14:09:47;6.40;;;1.80;;
83814;SDS011;73829;53.826;-3.034;2024-01-30T14:12:18;6.00;;;1.70;;
83814;SDS011;73829;53.826;-3.034;2024-01-30T14:14:49;7.30;;;1.90;;
83814;SDS011;73829;53.826;-3.034;2024-01-30T14:17:22;8.60;;;2.00;;
83814;SDS011;73829;53.826;-3.034;2024-01-30T14:19:53;7.30;;;1.70;;
83814;SDS011;73829;53.826;-3.034;2024-01-30T14:22:24;7.20;;;1.90;;
83814;SDS011;73829;53.826;-3.034;2024-01-30T14:24:55;5.80;;;1.90;;
83814;SDS011;73829;53.826;-3.034;2024-01-30T14:27:26;7.60;;;1.80;;
83814;SDS011;73829;53.826;-3.034;2024-01-30T14:29:57;6.50;;;2.30;;
83814;SDS011;73829;53.826;-3.034;2024-01-30T14:32:28;7.80;;;2.10;;
83814;SDS011;73829;53.826;-3.034;2024-01-30T14:34:59;7.20;;;2.10;;
83814;SDS011;73829;53.826;-3.034;2024-01-30T14:37:31;8.00;;;2.80;;
83814;SDS011;73829;53.826;-3.034;2024-01-30T14:40:02;5.90;;;1.70;;
83814;SDS011;73829;53.826;-3.034;2024-01-30T14:42:35;7.30;;;2.50;;
83814;SDS011;73829;53.826;-3.034;2024-01-30T14:45:07;7.40;;;2.30;;
83814;SDS011;73829;53.826;-3.034;2024-01-30T14:47:39;7.30;;;2.70;;
83814;SDS011;73829;53.826;-3.034;2024-01-30T14:50:11;6.80;;;2.60;;
83814;SDS011;73829;53.826;-3.034;2024-01-30T14:52:44;7.10;;;2.70;;
83814;SDS011;73829;53.826;-3.034;2024-01-30T14:55:15;7.40;;;2.60;;
83814;SDS011;73829;53.826;-3.034;2024-01-30T14:57:47;7.00;;;2.80;;
83814;SDS011;73829;53.826;-3.034;2024-01-30T15:00:18;8.50;;;2.90;;
83814;SDS011;73829;53.826;-3.034;2024-01-30T15:02:50;7.80;;;2.80;;
83814;SDS011;73829;53.826;-3.034;2024-01-30T15:05:21;7.30;;;3.00;;
83814;SDS011;73829;53.826;-3.034;2024-01-30T15:07:52;7.70;;;2.80;;
83814;SDS011;73829;53.826;-3.034;2024-01-30T15:10:23;10.60;;;3.20;;
83814;SDS011;73829;53.826;-3.034;2024-01-30T15:12:55;7.70;;;3.00;;
83814;SDS011;73829;53.826;-3.034;2024-01-30T15:15:27;9.70;;;3.10;;
83814;SDS011;73829;53.826;-3.034;2024-01-30T15:17:58;8.10;;;3.00;;
83814;SDS011;73829;53.826;-3.034;2024-01-30T15:20:30;10.40;;;3.50;;
83814;SDS011;73829;53.826;-3.034;2024-01-30T15:23:01;8.20;;;3.00;;
83814;SDS011;73829;53.826;-3.034;2024-01-30T15:25:32;7.60;;;3.20;;